sensor_id;sensor_type;location;lat;lon;timestamp;pressure;altitude;pressure_sealevel;temperature;humidity
18678;BME280;9469;51.114;13.914;2022-09-13T00:02:50;98538.44;;;12.38;100.00
18678;BME280;9469;51.114;13.914;2022-09-13T00:07:55;98527.44;;;12.31;100.00
18678;BME280;9469;51.114;13.914;2022-09-13T00:13:03;98520.53;;;12.38;100.00
18678;BME280;9469;51.114;13.914;2022-09-13T00:18:09;98515.19;;;12.47;100.00
18678;BME280;9469;51.114;13.914;2022-09-13T00:23:14;98507.81;;;12.35;100.00
18678;BME280;9469;51.114;13.914;2022-09-13T00:28:21;98507.06;;;12.17;100.00
18678;BME280;9469;51.114;13.914;2022-09-13T00:33:26;98506.28;;;12.34;100.00
18678;BME280;9469;51.114;13.914;2022-09-13T00:38:33;98503.91;;;12.33;100.00
18678;BME280;9469;51.114;13.914;2022-09-13T00:43:51;98491.22;;;12.30;100.00
18678;BME280;9469;51.114;13.914;2022-09-13T00:49:00;98480.88;;;12.19;100.00
18678;BME280;9469;51.114;13.914;2022-09-13T00:54:06;98469.13;;;12.20;100.00
18678;BME280;9469;51.114;13.914;2022-09-13T00:59:19;98463.63;;;12.26;100.00
18678;BME280;9469;51.114;13.914;2022-09-13T01:04:28;98465.16;;;12.35;100.00
18678;BME280;9469;51.114;13.914;2022-09-13T01:09:36;98457.19;;;12.27;100.00
18678;BME280;9469;51.114;13.914;2022-09-13T01:14:45;98465.16;;;12.35;100.00
18678;BME280;9469;51.114;13.914;2022-09-13T01:19:51;98441.50;;;12.25;100.00
18678;BME280;9469;51.114;13.914;2022-09-13T01:30:42;98431.94;;;12.15;100.00
18678;BME280;9469;51.114;13.914;2022-09-13T01:41:52;98423.31;;;12.18;100.00
18678;BME280;9469;51.114;13.914;2022-09-13T01:47:12;98408.88;;;12.19;100.00
18678;BME280;9469;51.114;13.914;2022-09-13T01:52:26;98408.25;;;12.22;100.00
18678;BME280;9469;51.114;13.914;2022-09-13T01:57:39;98389.78;;;12.09;100.00
18678;BME280;9469;51.114;13.914;2022-09-13T02:02:49;98401.38;;;12.13;100.00
18678;BME280;9469;51.114;13.914;2022-09-13T02:07:59;98397.59;;;12.14;100.00
18678;BME280;9469;51.114;13.914;2022-09-13T02:13:11;98390.38;;;12.14;100.00
18678;BME280;9469;51.114;13.914;2022-09-13T02:18:24;98380.06;;;12.04;100.00
18678;BME280;9469;51.114;13.914;2022-09-13T02:23:33;98384.75;;;12.16;100.00
18678;BME280;9469;51.114;13.914;2022-09-13T02:28:46;98382.09;;;12.07;100.00
18678;BME280;9469;51.114;13.914;2022-09-13T02:33:58;98378.34;;;12.00;100.00
18678;BME280;9469;51.114;13.914;2022-09-13T02:39:07;98380.19;;;12.08;100.00
18678;BME280;9469;51.114;13.914;2022-09-13T02:44:17;98382.06;;;12.16;100.00
18678;BME280;9469;51.114;13.914;2022-09-13T02:49:33;98368.75;;;11.99;100.00
18678;BME280;9469;51.114;13.914;2022-09-13T02:54:51;98388.84;;;12.05;100.00
18678;BME280;9469;51.114;13.914;2022-09-13T02:59:58;98380.25;;;11.82;100.00
18678;BME280;9469;51.114;13.914;2022-09-13T03:05:07;98389.19;;;11.86;100.00
18678;BME280;9469;51.114;13.914;2022-09-13T03:10:14;98391.53;;;11.79;100.00
18678;BME280;9469;51.114;13.914;2022-09-13T03:15:25;98368.63;;;11.78;100.00
18678;BME280;9469;51.114;13.914;2022-09-13T03:20:43;98368.34;;;11.71;100.00
18678;BME280;9469;51.114;13.914;2022-09-13T03:26:16;98351.88;;;11.52;100.00
18678;BME280;9469;51.114;13.914;2022-09-13T03:31:30;98346.06;;;11.59;100.00
18678;BME280;9469;51.114;13.914;2022-09-13T03:36:42;98339.03;;;11.54;100.00
18678;BME280;9469;51.114;13.914;2022-09-13T03:41:52;98324.44;;;11.51;100.00
18678;BME280;9469;51.114;13.914;2022-09-13T03:47:03;98318.97;;;11.57;100.00
18678;BME280;9469;51.114;13.914;2022-09-13T03:52:12;98319.16;;;11.69;100.00
18678;BME280;9469;51.114;13.914;2022-09-13T03:57:20;98342.13;;;11.90;100.00
18678;BME280;9469;51.114;13.914;2022-09-13T04:02:25;98330.38;;;11.83;100.00
18678;BME280;9469;51.114;13.914;2022-09-13T04:07:33;98326.97;;;11.82;100.00
18678;BME280;9469;51.114;13.914;2022-09-13T04:12:38;98337.91;;;11.81;100.00
18678;BME280;9469;51.114;13.914;2022-09-13T04:17:46;98332.91;;;11.79;100.00
18678;BME280;9469;51.114;13.914;2022-09-13T04:22:55;98328.22;;;11.85;100.00
18678;BME280;9469;51.114;13.914;2022-09-13T04:28:00;98331.66;;;11.60;100.00
18678;BME280;9469;51.114;13.914;2022-09-13T04:33:05;98324.47;;;11.69;100.00
18678;BME280;9469;51.114;13.914;2022-09-13T04:38:13;98318.34;;;11.68;100.00
18678;BME280;9469;51.114;13.914;2022-09-13T04:43:18;98330.72;;;11.64;100.00
18678;BME280;9469;51.114;13.914;2022-09-13T04:48:23;98326.50;;;11.72;100.00
18678;BME280;9469;51.114;13.914;2022-09-13T04:53:32;98323.81;;;11.54;100.00
18678;BME280;9469;51.114;13.914;2022-09-13T04:58:37;98315.50;;;11.82;100.00
18678;BME280;9469;51.114;13.914;2022-09-13T05:03:43;98321.25;;;12.09;100.00
18678;BME280;9469;51.114;13.914;2022-09-13T05:08:53;98312.00;;;13.44;100.00
18678;BME280;9469;51.114;13.914;2022-09-13T05:13:59;98319.53;;;12.43;100.00
18678;BME280;9469;51.114;13.914;2022-09-13T05:19:05;98305.34;;;12.21;100.00
18678;BME280;9469;51.114;13.914;2022-09-13T05:24:14;98311.41;;;13.72;100.00
18678;BME280;9469;51.114;13.914;2022-09-13T05:29:19;98300.28;;;15.27;100.00
18678;BME280;9469;51.114;13.914;2022-09-13T05:34:24;98291.88;;;15.13;100.00
18678;BME280;9469;51.114;13.914;2022-09-13T05:39:33;98296.78;;;15.38;100.00
18678;BME280;9469;51.114;13.914;2022-09-13T05:44:58;98300.66;;;15.25;100.00
18678;BME280;9469;51.114;13.914;2022-09-13T05:50:04;98287.06;;;16.83;100.00
18678;BME280;9469;51.114;13.914;2022-09-13T05:55:15;98286.34;;;14.21;100.00
18678;BME280;9469;51.114;13.914;2022-09-13T06:00:20;98273.41;;;13.66;100.00
18678;BME280;9469;51.114;13.914;2022-09-13T06:05:26;98241.19;;;13.50;100.00
18678;BME280;9469;51.114;13.914;2022-09-13T06:10:37;98250.91;;;15.40;100.00
18678;BME280;9469;51.114;13.914;2022-09-13T06:15:44;98269.66;;;18.37;96.26
18678;BME280;9469;51.114;13.914;2022-09-13T06:20:49;98261.72;;;17.99;97.10
18678;BME280;9469;51.114;13.914;2022-09-13T06:26:02;98261.59;;;17.91;97.07
18678;BME280;9469;51.114;13.914;2022-09-13T06:31:10;98242.28;;;18.09;96.90
18678;BME280;9469;51.114;13.914;2022-09-13T06:36:20;98240.06;;;17.91;97.21
18678;BME280;9469;51.114;13.914;2022-09-13T06:41:28;98258.19;;;17.34;100.00
18678;BME280;9469;51.114;13.914;2022-09-13T06:46:34;98264.84;;;18.72;99.76
18678;BME280;9469;51.114;13.914;2022-09-13T06:51:40;98255.34;;;19.78;96.76
18678;BME280;9469;51.114;13.914;2022-09-13T06:56:48;98238.63;;;23.95;75.84
18678;BME280;9469;51.114;13.914;2022-09-13T07:01:54;98242.34;;;20.34;89.23
18678;BME280;9469;51.114;13.914;2022-09-13T07:07:02;98243.75;;;19.74;89.56
18678;BME280;9469;51.114;13.914;2022-09-13T07:12:13;98246.03;;;20.16;88.76
18678;BME280;9469;51.114;13.914;2022-09-13T07:17:22;98239.41;;;20.53;85.59
18678;BME280;9469;51.114;13.914;2022-09-13T07:22:32;98235.47;;;19.96;88.90
18678;BME280;9469;51.114;13.914;2022-09-13T07:27:40;98231.59;;;19.54;90.09
18678;BME280;9469;51.114;13.914;2022-09-13T07:32:45;98217.44;;;19.30;91.48
18678;BME280;9469;51.114;13.914;2022-09-13T07:37:50;98228.78;;;19.13;92.01
18678;BME280;9469;51.114;13.914;2022-09-13T07:42:58;98251.91;;;19.14;93.67
18678;BME280;9469;51.114;13.914;2022-09-13T07:48:04;98253.66;;;18.70;95.76
18678;BME280;9469;51.114;13.914;2022-09-13T07:53:10;98236.19;;;18.60;96.75
18678;BME280;9469;51.114;13.914;2022-09-13T07:58:21;98249.59;;;18.57;96.54
18678;BME280;9469;51.114;13.914;2022-09-13T08:03:26;98239.97;;;18.56;98.76
18678;BME280;9469;51.114;13.914;2022-09-13T08:08:32;98244.84;;;18.24;100.00
18678;BME280;9469;51.114;13.914;2022-09-13T08:13:40;98253.16;;;18.38;100.00
18678;BME280;9469;51.114;13.914;2022-09-13T08:18:47;98262.91;;;18.46;100.00
18678;BME280;9469;51.114;13.914;2022-09-13T08:23:56;98259.63;;;18.34;100.00
18678;BME280;9469;51.114;13.914;2022-09-13T08:29:05;98264.50;;;18.28;100.00
18678;BME280;9469;51.114;13.914;2022-09-13T08:34:11;98269.06;;;18.47;100.00
18678;BME280;9469;51.114;13.914;2022-09-13T08:39:17;98258.41;;;18.54;100.00
18678;BME280;9469;51.114;13.914;2022-09-13T08:44:27;98263.25;;;18.71;100.00
18678;BME280;9469;51.114;13.914;2022-09-13T08:49:38;98265.97;;;18.71;100.00
18678;BME280;9469;51.114;13.914;2022-09-13T08:54:44;98257.00;;;18.41;100.00
18678;BME280;9469;51.114;13.914;2022-09-13T08:59:59;98267.72;;;18.60;100.00
18678;BME280;9469;51.114;13.914;2022-09-13T09:05:14;98257.25;;;18.55;100.00
18678;BME280;9469;51.114;13.914;2022-09-13T09:10:23;98270.22;;;18.72;100.00
18678;BME280;9469;51.114;13.914;2022-09-13T09:15:39;98252.19;;;18.76;100.00
18678;BME280;9469;51.114;13.914;2022-09-13T09:20:47;98236.91;;;18.84;100.00
18678;BME280;9469;51.114;13.914;2022-09-13T09:25:56;98234.34;;;18.94;100.00
18678;BME280;9469;51.114;13.914;2022-09-13T09:31:12;98228.91;;;19.24;100.00
18678;BME280;9469;51.114;13.914;2022-09-13T09:36:25;98222.09;;;19.33;100.00
18678;BME280;9469;51.114;13.914;2022-09-13T09:41:34;98226.13;;;19.47;100.00
18678;BME280;9469;51.114;13.914;2022-09-13T09:46:44;98229.31;;;19.59;100.00
18678;BME280;9469;51.114;13.914;2022-09-13T09:51:52;98214.56;;;19.50;100.00
18678;BME280;9469;51.114;13.914;2022-09-13T09:56:58;98222.50;;;19.69;100.00
18678;BME280;9469;51.114;13.914;2022-09-13T10:02:15;98203.47;;;21.25;92.62
18678;BME280;9469;51.114;13.914;2022-09-13T10:07:29;98192.81;;;22.02;92.15
18678;BME280;9469;51.114;13.914;2022-09-13T10:12:38;98181.44;;;22.78;85.33
18678;BME280;9469;51.114;13.914;2022-09-13T10:18:00;98184.97;;;22.54;84.79
18678;BME280;9469;51.114;13.914;2022-09-13T10:23:28;98165.31;;;22.04;86.01
18678;BME280;9469;51.114;13.914;2022-09-13T10:28:35;98164.53;;;22.25;86.20
18678;BME280;9469;51.114;13.914;2022-09-13T10:33:51;98162.44;;;22.89;81.60
18678;BME280;9469;51.114;13.914;2022-09-13T10:39:03;98154.72;;;22.80;82.60
18678;BME280;9469;51.114;13.914;2022-09-13T10:44:27;98165.84;;;23.03;81.30
18678;BME280;9469;51.114;13.914;2022-09-13T10:49:39;98166.19;;;23.81;77.78
18678;BME280;9469;51.114;13.914;2022-09-13T10:54:52;98147.47;;;23.39;79.12
18678;BME280;9469;51.114;13.914;2022-09-13T10:59:57;98149.59;;;23.69;77.08
18678;BME280;9469;51.114;13.914;2022-09-13T11:05:16;98154.97;;;23.76;77.22
18678;BME280;9469;51.114;13.914;2022-09-13T11:10:29;98147.50;;;23.25;78.18
18678;BME280;9469;51.114;13.914;2022-09-13T11:15:45;98137.97;;;23.65;77.63
18678;BME280;9469;51.114;13.914;2022-09-13T11:21:04;98146.34;;;23.26;78.32
18678;BME280;9469;51.114;13.914;2022-09-13T11:26:27;98132.69;;;23.43;78.03
18678;BME280;9469;51.114;13.914;2022-09-13T11:31:44;98124.72;;;23.70;77.41
18678;BME280;9469;51.114;13.914;2022-09-13T11:37:07;98125.25;;;24.02;77.31
18678;BME280;9469;51.114;13.914;2022-09-13T11:42:25;98109.38;;;23.53;78.07
18678;BME280;9469;51.114;13.914;2022-09-13T11:47:47;98123.78;;;23.46;80.47
18678;BME280;9469;51.114;13.914;2022-09-13T11:58:35;98098.84;;;24.06;77.75
18678;BME280;9469;51.114;13.914;2022-09-13T12:03:46;98100.91;;;23.92;78.49
18678;BME280;9469;51.114;13.914;2022-09-13T12:08:59;98099.06;;;24.22;75.44
18678;BME280;9469;51.114;13.914;2022-09-13T12:14:12;98078.31;;;25.00;74.77
18678;BME280;9469;51.114;13.914;2022-09-13T12:19:21;98084.94;;;24.68;72.63
18678;BME280;9469;51.114;13.914;2022-09-13T12:24:34;98078.66;;;24.07;75.67
18678;BME280;9469;51.114;13.914;2022-09-13T12:29:46;98073.66;;;24.40;73.24
18678;BME280;9469;51.114;13.914;2022-09-13T12:34:57;98071.78;;;25.24;70.77
18678;BME280;9469;51.114;13.914;2022-09-13T12:45:57;98072.44;;;24.44;71.54
18678;BME280;9469;51.114;13.914;2022-09-13T12:51:13;98065.88;;;24.38;70.73
18678;BME280;9469;51.114;13.914;2022-09-13T12:56:34;98063.16;;;24.38;70.42
18678;BME280;9469;51.114;13.914;2022-09-13T13:01:47;98056.47;;;24.46;71.43
18678;BME280;9469;51.114;13.914;2022-09-13T13:06:56;98061.44;;;24.21;70.10
18678;BME280;9469;51.114;13.914;2022-09-13T13:12:05;98050.56;;;24.21;71.49
18678;BME280;9469;51.114;13.914;2022-09-13T13:17:35;98045.03;;;24.28;71.36
18678;BME280;9469;51.114;13.914;2022-09-13T13:22:49;98050.91;;;23.86;71.61
18678;BME280;9469;51.114;13.914;2022-09-13T13:27:57;98048.78;;;24.07;72.20
18678;BME280;9469;51.114;13.914;2022-09-13T13:33:13;98049.00;;;24.20;72.90
18678;BME280;9469;51.114;13.914;2022-09-13T13:38:39;98042.81;;;24.53;71.28
18678;BME280;9469;51.114;13.914;2022-09-13T13:43:50;98036.81;;;24.65;70.80
18678;BME280;9469;51.114;13.914;2022-09-13T13:48:55;98034.22;;;24.55;67.63
18678;BME280;9469;51.114;13.914;2022-09-13T13:54:14;98034.94;;;24.29;70.25
18678;BME280;9469;51.114;13.914;2022-09-13T13:59:32;98032.72;;;23.79;70.50
18678;BME280;9469;51.114;13.914;2022-09-13T14:10:18;98034.94;;;23.50;72.36
18678;BME280;9469;51.114;13.914;2022-09-13T14:15:39;98035.72;;;23.47;72.61
18678;BME280;9469;51.114;13.914;2022-09-13T14:21:03;98032.16;;;23.58;73.65
18678;BME280;9469;51.114;13.914;2022-09-13T14:26:09;98027.19;;;23.49;73.63
18678;BME280;9469;51.114;13.914;2022-09-13T14:31:20;98022.59;;;23.42;74.81
18678;BME280;9469;51.114;13.914;2022-09-13T14:36:25;98011.75;;;23.42;75.44
18678;BME280;9469;51.114;13.914;2022-09-13T14:41:32;98010.69;;;23.26;74.59
18678;BME280;9469;51.114;13.914;2022-09-13T14:46:41;98008.53;;;23.54;74.71
18678;BME280;9469;51.114;13.914;2022-09-13T14:51:50;98005.97;;;23.37;76.32
18678;BME280;9469;51.114;13.914;2022-09-13T14:57:00;97999.75;;;23.36;76.00
18678;BME280;9469;51.114;13.914;2022-09-13T15:02:15;98006.69;;;23.41;76.75
18678;BME280;9469;51.114;13.914;2022-09-13T15:07:27;98004.06;;;23.30;78.02
18678;BME280;9469;51.114;13.914;2022-09-13T15:12:33;98007.66;;;23.20;77.75
18678;BME280;9469;51.114;13.914;2022-09-13T15:17:57;98015.50;;;23.04;77.82
18678;BME280;9469;51.114;13.914;2022-09-13T15:23:02;98023.38;;;22.84;79.60
18678;BME280;9469;51.114;13.914;2022-09-13T15:28:19;98006.72;;;22.86;79.80
18678;BME280;9469;51.114;13.914;2022-09-13T15:33:29;98011.44;;;22.75;79.42
18678;BME280;9469;51.114;13.914;2022-09-13T15:38:34;98010.63;;;22.78;79.40
18678;BME280;9469;51.114;13.914;2022-09-13T15:43:39;98009.81;;;22.84;78.89
18678;BME280;9469;51.114;13.914;2022-09-13T15:48:50;98011.81;;;22.77;79.54
18678;BME280;9469;51.114;13.914;2022-09-13T15:53:57;98008.03;;;22.60;81.16
18678;BME280;9469;51.114;13.914;2022-09-13T15:59:02;97993.31;;;22.58;81.31
18678;BME280;9469;51.114;13.914;2022-09-13T16:04:09;97994.53;;;22.46;81.88
18678;BME280;9469;51.114;13.914;2022-09-13T16:09:17;98003.84;;;22.42;82.47
18678;BME280;9469;51.114;13.914;2022-09-13T16:14:22;97994.59;;;22.36;82.50
18678;BME280;9469;51.114;13.914;2022-09-13T16:19:30;98007.28;;;22.46;82.67
18678;BME280;9469;51.114;13.914;2022-09-13T16:24:35;98001.44;;;22.58;82.14
18678;BME280;9469;51.114;13.914;2022-09-13T16:29:40;98006.94;;;22.37;82.86
18678;BME280;9469;51.114;13.914;2022-09-13T16:34:48;98008.47;;;22.41;82.93
18678;BME280;9469;51.114;13.914;2022-09-13T16:39:55;98008.91;;;22.33;84.00
18678;BME280;9469;51.114;13.914;2022-09-13T16:45:00;98007.41;;;22.14;84.91
18678;BME280;9469;51.114;13.914;2022-09-13T16:50:09;98004.69;;;22.21;84.17
18678;BME280;9469;51.114;13.914;2022-09-13T16:55:14;98002.78;;;22.14;84.77
18678;BME280;9469;51.114;13.914;2022-09-13T17:00:19;97995.09;;;22.06;84.34
18678;BME280;9469;51.114;13.914;2022-09-13T17:05:27;97996.22;;;22.16;83.70
18678;BME280;9469;51.114;13.914;2022-09-13T17:10:32;97997.41;;;22.04;84.70
18678;BME280;9469;51.114;13.914;2022-09-13T17:15:37;98002.03;;;22.10;83.86
18678;BME280;9469;51.114;13.914;2022-09-13T17:20:46;97993.19;;;21.99;84.32
18678;BME280;9469;51.114;13.914;2022-09-13T17:25:52;97991.59;;;22.05;84.82
18678;BME280;9469;51.114;13.914;2022-09-13T17:30:56;97990.88;;;21.98;85.60
18678;BME280;9469;51.114;13.914;2022-09-13T17:36:09;97987.78;;;21.78;85.20
18678;BME280;9469;51.114;13.914;2022-09-13T17:41:16;97985.88;;;21.68;85.38
18678;BME280;9469;51.114;13.914;2022-09-13T17:46:22;97990.91;;;21.73;85.59
18678;BME280;9469;51.114;13.914;2022-09-13T17:51:32;97985.50;;;21.56;86.14
18678;BME280;9469;51.114;13.914;2022-09-13T17:56:39;97977.03;;;21.50;86.39
18678;BME280;9469;51.114;13.914;2022-09-13T18:01:45;97979.75;;;21.32;87.28
18678;BME280;9469;51.114;13.914;2022-09-13T18:06:53;97981.69;;;21.46;87.10
18678;BME280;9469;51.114;13.914;2022-09-13T18:11:59;97976.66;;;21.23;88.92
18678;BME280;9469;51.114;13.914;2022-09-13T18:17:04;97975.50;;;21.10;89.27
18678;BME280;9469;51.114;13.914;2022-09-13T18:22:16;97980.13;;;21.06;89.09
18678;BME280;9469;51.114;13.914;2022-09-13T18:27:21;97972.03;;;21.13;91.44
18678;BME280;9469;51.114;13.914;2022-09-13T18:32:26;97969.69;;;20.87;94.58
18678;BME280;9469;51.114;13.914;2022-09-13T18:37:33;97963.09;;;20.99;90.71
18678;BME280;9469;51.114;13.914;2022-09-13T18:42:38;97971.59;;;20.90;91.05
18678;BME280;9469;51.114;13.914;2022-09-13T18:47:46;97977.34;;;20.67;91.74
18678;BME280;9469;51.114;13.914;2022-09-13T18:52:53;97980.44;;;20.69;91.08
18678;BME280;9469;51.114;13.914;2022-09-13T18:57:58;97973.88;;;20.63;91.67
18678;BME280;9469;51.114;13.914;2022-09-13T19:03:05;97980.44;;;20.62;91.89
18678;BME280;9469;51.114;13.914;2022-09-13T19:08:16;97973.13;;;20.70;90.91
18678;BME280;9469;51.114;13.914;2022-09-13T19:13:22;97979.66;;;20.58;91.99
18678;BME280;9469;51.114;13.914;2022-09-13T19:18:27;97978.50;;;20.52;92.99
18678;BME280;9469;51.114;13.914;2022-09-13T19:23:37;97980.03;;;20.50;92.19
18678;BME280;9469;51.114;13.914;2022-09-13T19:29:05;97981.41;;;20.12;93.96
18678;BME280;9469;51.114;13.914;2022-09-13T19:34:11;97992.94;;;20.02;94.33
18678;BME280;9469;51.114;13.914;2022-09-13T19:39:18;97997.19;;;20.07;93.78
18678;BME280;9469;51.114;13.914;2022-09-13T19:44:30;98000.78;;;20.25;92.17
18678;BME280;9469;51.114;13.914;2022-09-13T19:49:35;97991.50;;;20.22;92.35
18678;BME280;9469;51.114;13.914;2022-09-13T19:54:43;98000.78;;;20.21;92.14
18678;BME280;9469;51.114;13.914;2022-09-13T19:59:48;97988.06;;;20.36;91.38
18678;BME280;9469;51.114;13.914;2022-09-13T20:04:53;97995.13;;;19.79;99.20
18678;BME280;9469;51.114;13.914;2022-09-13T20:10:01;97987.25;;;19.53;100.00
18678;BME280;9469;51.114;13.914;2022-09-13T20:15:07;97991.56;;;19.13;100.00
18678;BME280;9469;51.114;13.914;2022-09-13T20:20:12;97990.41;;;19.11;100.00
18678;BME280;9469;51.114;13.914;2022-09-13T20:25:20;97995.50;;;18.79;100.00
18678;BME280;9469;51.114;13.914;2022-09-13T20:30:25;97997.31;;;19.08;100.00
18678;BME280;9469;51.114;13.914;2022-09-13T20:35:30;97994.53;;;19.01;100.00
18678;BME280;9469;51.114;13.914;2022-09-13T20:40:38;97997.91;;;18.51;100.00
18678;BME280;9469;51.114;13.914;2022-09-13T20:45:43;97998.41;;;18.63;100.00
18678;BME280;9469;51.114;13.914;2022-09-13T20:50:55;98009.72;;;18.43;100.00
18678;BME280;9469;51.114;13.914;2022-09-13T20:56:06;97999.09;;;17.94;100.00
18678;BME280;9469;51.114;13.914;2022-09-13T21:01:14;97999.56;;;18.00;100.00
18678;BME280;9469;51.114;13.914;2022-09-13T21:06:23;98000.91;;;18.46;100.00
18678;BME280;9469;51.114;13.914;2022-09-13T21:11:32;97991.50;;;18.00;100.00
18678;BME280;9469;51.114;13.914;2022-09-13T21:16:39;97997.47;;;17.86;100.00
18678;BME280;9469;51.114;13.914;2022-09-13T21:21:44;97999.97;;;17.72;100.00
18678;BME280;9469;51.114;13.914;2022-09-13T21:26:52;97994.88;;;17.67;100.00
18678;BME280;9469;51.114;13.914;2022-09-13T21:31:58;97998.94;;;17.54;100.00
18678;BME280;9469;51.114;13.914;2022-09-13T21:37:02;97994.91;;;17.97;100.00
18678;BME280;9469;51.114;13.914;2022-09-13T21:42:10;98007.91;;;17.39;100.00
18678;BME280;9469;51.114;13.914;2022-09-13T21:47:16;98005.59;;;17.63;100.00
18678;BME280;9469;51.114;13.914;2022-09-13T21:52:21;98004.72;;;17.56;100.00
18678;BME280;9469;51.114;13.914;2022-09-13T21:57:29;98014.78;;;17.36;100.00
18678;BME280;9469;51.114;13.914;2022-09-13T22:02:34;98010.47;;;17.32;100.00
18678;BME280;9469;51.114;13.914;2022-09-13T22:07:39;98010.00;;;17.26;100.00
18678;BME280;9469;51.114;13.914;2022-09-13T22:12:46;98019.00;;;17.14;100.00
18678;BME280;9469;51.114;13.914;2022-09-13T22:17:51;98021.56;;;17.30;100.00
18678;BME280;9469;51.114;13.914;2022-09-13T22:22:56;98030.94;;;17.62;100.00
18678;BME280;9469;51.114;13.914;2022-09-13T22:28:04;98022.09;;;17.39;100.00
18678;BME280;9469;51.114;13.914;2022-09-13T22:33:08;98027.13;;;17.41;100.00
18678;BME280;9469;51.114;13.914;2022-09-13T22:38:13;98022.41;;;17.34;100.00
18678;BME280;9469;51.114;13.914;2022-09-13T22:43:21;98031.78;;;16.98;100.00
18678;BME280;9469;51.114;13.914;2022-09-13T22:48:25;98020.44;;;16.86;100.00
18678;BME280;9469;51.114;13.914;2022-09-13T22:53:31;98025.28;;;16.77;100.00
18678;BME280;9469;51.114;13.914;2022-09-13T22:58:39;98019.19;;;16.80;100.00
18678;BME280;9469;51.114;13.914;2022-09-13T23:03:46;98037.91;;;16.76;100.00
18678;BME280;9469;51.114;13.914;2022-09-13T23:08:53;98034.41;;;16.72;100.00
18678;BME280;9469;51.114;13.914;2022-09-13T23:14:05;98036.44;;;16.79;100.00
18678;BME280;9469;51.114;13.914;2022-09-13T23:19:11;98033.47;;;16.84;100.00
18678;BME280;9469;51.114;13.914;2022-09-13T23:24:17;98031.47;;;16.81;100.00
18678;BME280;9469;51.114;13.914;2022-09-13T23:29:25;98029.16;;;16.79;100.00
18678;BME280;9469;51.114;13.914;2022-09-13T23:34:30;98014.09;;;16.75;100.00
18678;BME280;9469;51.114;13.914;2022-09-13T23:39:35;98022.81;;;16.68;100.00
18678;BME280;9469;51.114;13.914;2022-09-13T23:44:42;98027.34;;;16.64;100.00
18678;BME280;9469;51.114;13.914;2022-09-13T23:49:47;98021.06;;;16.57;100.00
18678;BME280;9469;51.114;13.914;2022-09-13T23:54:52;98008.13;;;16.43;100.00
